クアラルンプール の空港の天気 - METARとTAF

クアラルンプール国際空港 ( WMKK / KUL ) - マレーシア スランゴール州セパン
飛行場実況気象(Metar)
観測時間05/31 02:00 MYT (05/30 18:00 UTC)
風向・風速不定 2m/s
視程8000m
天気現象
少しの雲 雲底高度 30m
気温26℃
湿度94%
気圧1011hPa
METARWMKK 301800Z VRB03KT 8000 FEW001 26/25 Q1011 NOSIG
過去の天気等 Google飛行場航空写真 Wunderground天気予報

過去48時間のMETAR

飛行場予報(TAF)
発表時間: 5/31 01:00 MYT (5/30 17:00 UTC)
予報対象時間: 31日2時 MYT ~ 1日8時 MYT
風向・風速東 3m/s
視程10km以上
少しの積乱雲 雲底高度 520m
31日8時 MYT ~ 31日12時 MYT に 確率 30% で一時的に
風向・風速南南西 4m/s
視程4000m
天気現象雷雨
少しの積乱雲 雲底高度 520m
全天の4割程度の雲 雲底高度 550m
31日13時 MYT ~ 31日14時 MYT に徐々に
風向・風速南西 3m/s
TAF WMKK 301700Z 3018/0100 08005KT 9999 FEW017CB
PROB30 TEMPO 3100/3104 20008KT 4000 TSRA FEW017CB SCT018
BECMG 3105/3106 23005KT